createdAt,value
2023-03-08T00:00:46.016Z,45.10
2023-03-08T00:03:49.026Z,45.09
2023-03-08T00:06:52.012Z,45.05
2023-03-08T00:09:54.927Z,45.08
2023-03-08T00:12:59.235Z,45.23
2023-03-08T00:16:02.900Z,45.02
2023-03-08T00:19:05.840Z,45.05
2023-03-08T00:22:08.856Z,45.09
2023-03-08T00:25:12.254Z,45.06
2023-03-08T00:28:16.533Z,45.13
2023-03-08T00:31:19.748Z,44.97
2023-03-08T00:34:23.112Z,45.01
2023-03-08T00:37:26.052Z,45.09
2023-03-08T00:40:29.020Z,45.02
2023-03-08T00:43:34.880Z,45.05
2023-03-08T00:46:39.527Z,44.90
2023-03-08T00:49:42.636Z,45.02
2023-03-08T00:52:45.623Z,45.03
2023-03-08T00:55:54.252Z,44.98
2023-03-08T00:58:58.571Z,44.93
2023-03-08T01:02:01.883Z,45.04
2023-03-08T01:05:05.052Z,45.03
2023-03-08T01:08:07.981Z,44.83
2023-03-08T01:11:17.698Z,44.95
2023-03-08T01:14:23.568Z,44.89
2023-03-08T01:17:26.696Z,44.91
2023-03-08T01:20:29.628Z,44.97
2023-03-08T01:23:33.360Z,44.67
2023-03-08T01:26:36.618Z,44.87
2023-03-08T01:29:41.146Z,44.95
2023-03-08T01:32:44.187Z,44.83
2023-03-08T01:35:47.099Z,44.88
2023-03-08T01:38:51.981Z,44.80
2023-03-08T01:41:54.964Z,44.78
2023-03-08T01:45:01.013Z,44.81
2023-03-08T01:48:06.259Z,44.82
2023-03-08T01:51:37.244Z,44.84
2023-03-08T01:54:46.936Z,44.72
2023-03-08T01:57:53.453Z,44.83
2023-03-08T02:00:58.219Z,44.77
2023-03-08T02:04:01.550Z,44.80
2023-03-08T02:07:05.003Z,44.80
2023-03-08T02:10:09.307Z,44.68
2023-03-08T02:13:13.696Z,44.82
2023-03-08T02:16:22.200Z,44.82
2023-03-08T02:19:33.404Z,44.85
2023-03-08T02:22:40.180Z,44.88
2023-03-08T02:25:50.745Z,44.74
2023-03-08T02:28:53.843Z,44.86
2023-03-08T02:31:57.513Z,44.94
2023-03-08T02:35:00.470Z,44.79
2023-03-08T02:38:04.767Z,44.79
2023-03-08T02:41:07.975Z,44.89
2023-03-08T02:44:12.466Z,44.79
2023-03-08T02:47:15.481Z,44.71
2023-03-08T02:50:18.632Z,44.82
2023-03-08T02:53:23.054Z,44.82
2023-03-08T02:56:26.063Z,44.85
2023-03-08T02:59:30.824Z,44.73
2023-03-08T03:02:34.939Z,44.84
2023-03-08T03:05:43.085Z,44.64
2023-03-08T03:08:50.805Z,44.70
2023-03-08T03:11:54.902Z,44.81
2023-03-08T03:14:58.273Z,44.75
2023-03-08T03:18:01.905Z,44.75
2023-03-08T03:21:06.055Z,44.66
2023-03-08T03:24:10.532Z,44.76
2023-03-08T03:27:22.244Z,44.79
2023-03-08T03:30:25.256Z,44.76
2023-03-08T03:33:29.591Z,44.66
2023-03-08T03:36:34.358Z,44.74
2023-03-08T03:39:39.693Z,44.62
2023-03-08T03:42:45.621Z,44.74
2023-03-08T03:45:56.683Z,44.69
2023-03-08T03:49:00.289Z,44.72
2023-03-08T03:52:09.256Z,44.65
2023-03-08T03:55:20.014Z,44.62
2023-03-08T03:58:24.229Z,44.79
2023-03-08T04:01:29.440Z,44.59
2023-03-08T04:04:39.454Z,44.68
2023-03-08T04:07:42.965Z,44.81
2023-03-08T04:10:47.413Z,44.64
2023-03-08T04:13:50.885Z,44.76
2023-03-08T04:16:57.285Z,44.59
2023-03-08T04:20:08.016Z,44.68
2023-03-08T04:23:16.491Z,44.66
2023-03-08T04:26:23.706Z,44.51
2023-03-08T04:29:26.832Z,44.55
2023-03-08T04:32:31.784Z,44.56
2023-03-08T04:35:35.481Z,44.48
2023-03-08T04:38:40.117Z,44.67
2023-03-08T04:41:44.587Z,44.55
2023-03-08T04:45:08.989Z,44.64
2023-03-08T04:48:12.116Z,44.49
2023-03-08T04:51:16.859Z,44.70
2023-03-08T04:54:21.358Z,44.66
2023-03-08T04:57:31.765Z,44.66
2023-03-08T05:00:36.361Z,44.61
2023-03-08T05:03:39.927Z,44.76
2023-03-08T05:06:43.691Z,44.58
2023-03-08T05:09:51.772Z,44.60
2023-03-08T05:12:56.200Z,44.61
2023-03-08T05:15:59.722Z,44.69
2023-03-08T05:19:04.463Z,44.54
2023-03-08T05:22:12.873Z,44.70
2023-03-08T05:25:21.879Z,44.65
2023-03-08T05:28:28.786Z,44.72
2023-03-08T05:31:32.353Z,44.55
2023-03-08T05:34:39.264Z,44.60
2023-03-08T05:37:45.176Z,44.58
2023-03-08T05:40:48.520Z,44.58
2023-03-08T05:43:53.430Z,44.66
2023-03-08T05:46:57.395Z,44.54
2023-03-08T05:50:00.399Z,44.60
2023-03-08T05:53:06.261Z,44.66
2023-03-08T05:56:10.712Z,44.73
2023-03-08T05:59:18.324Z,44.61
2023-03-08T06:02:23.497Z,44.62
2023-03-08T06:05:30.193Z,44.53
2023-03-08T06:08:34.206Z,44.55
2023-03-08T06:11:37.368Z,44.54
2023-03-08T06:14:42.867Z,44.65
2023-03-08T06:17:47.079Z,44.58
2023-03-08T06:21:01.971Z,44.52
2023-03-08T06:24:06.864Z,44.57
2023-03-08T06:27:09.962Z,44.73
2023-03-08T06:30:17.338Z,44.87
2023-03-08T06:33:21.629Z,44.92
2023-03-08T06:36:24.807Z,44.89
2023-03-08T06:39:30.911Z,44.98
2023-03-08T06:42:41.414Z,45.11
2023-03-08T06:45:49.958Z,45.00
2023-03-08T06:48:54.464Z,45.15
2023-03-08T06:51:57.519Z,45.05
2023-03-08T06:55:00.550Z,45.05
2023-03-08T06:58:03.782Z,45.11
2023-03-08T07:01:09.703Z,44.98
2023-03-08T07:04:12.755Z,45.01
2023-03-08T07:07:15.739Z,44.97
2023-03-08T07:10:20.652Z,45.07
2023-03-08T07:13:24.217Z,44.97
2023-03-08T07:16:29.060Z,45.04
2023-03-08T07:19:32.803Z,45.02
2023-03-08T07:22:35.769Z,44.99
2023-03-08T07:25:40.157Z,45.21
2023-03-08T07:28:43.204Z,45.16
2023-03-08T07:31:47.517Z,45.10
2023-03-08T07:34:50.503Z,45.06
2023-03-08T07:37:53.507Z,45.13
2023-03-08T07:40:57.524Z,45.13
2023-03-08T07:44:00.432Z,45.06
2023-03-08T07:47:05.998Z,45.20
2023-03-08T07:50:10.373Z,45.18
2023-03-08T07:53:13.311Z,45.14
2023-03-08T07:56:16.265Z,45.21
2023-03-08T07:59:19.280Z,45.21
2023-03-08T08:02:24.042Z,45.20
2023-03-08T08:05:27.120Z,45.12
2023-03-08T08:08:30.066Z,45.05
2023-03-08T08:11:34.296Z,45.15
2023-03-08T08:14:37.410Z,45.02
2023-03-08T08:17:41.750Z,45.13
2023-03-08T08:20:44.678Z,45.07
2023-03-08T08:23:48.310Z,45.22
2023-03-08T08:26:51.212Z,45.16
2023-03-08T08:29:54.221Z,45.15
2023-03-08T08:33:01.264Z,45.22
2023-03-08T08:36:06.668Z,45.29
2023-03-08T08:39:09.839Z,45.54
2023-03-08T08:42:12.867Z,45.50
2023-03-08T08:45:16.166Z,45.68
2023-03-08T08:48:20.581Z,45.71
2023-03-08T08:51:23.763Z,45.67
2023-03-08T08:54:26.924Z,45.62
2023-03-08T08:57:29.956Z,45.75
2023-03-08T09:00:34.558Z,45.63
2023-03-08T09:03:38.857Z,45.67
2023-03-08T09:06:41.872Z,45.80
2023-03-08T09:09:46.434Z,45.80
2023-03-08T09:12:49.486Z,45.69
2023-03-08T09:15:52.433Z,45.62
2023-03-08T09:18:58.002Z,45.59
2023-03-08T09:22:01.077Z,45.66
2023-03-08T09:25:04.746Z,45.79
2023-03-08T09:28:07.720Z,45.74
2023-03-08T09:31:14.986Z,45.79
2023-03-08T09:34:19.538Z,45.73
2023-03-08T09:37:22.569Z,45.65
2023-03-08T09:40:28.072Z,45.79
2023-03-08T09:43:45.399Z,45.83
2023-03-08T09:46:53.451Z,45.74
2023-03-08T09:50:15.928Z,45.81
2023-03-08T09:53:25.029Z,45.76
2023-03-08T09:56:34.180Z,45.81
2023-03-08T09:59:42.744Z,45.78
2023-03-08T10:02:55.321Z,45.72
2023-03-08T10:06:05.430Z,45.75
2023-03-08T10:09:22.341Z,45.63
2023-03-08T10:12:35.312Z,45.74
2023-03-08T10:15:43.113Z,45.72
2023-03-08T10:18:51.624Z,45.62
2023-03-08T10:21:59.323Z,45.66
2023-03-08T10:25:05.986Z,45.58
2023-03-08T10:28:14.635Z,45.63
2023-03-08T10:31:24.123Z,45.51
2023-03-08T10:34:35.238Z,44.45
2023-03-08T10:37:39.789Z,44.41
2023-03-08T10:40:42.752Z,43.99
2023-03-08T10:43:48.182Z,44.01
2023-03-08T10:46:51.649Z,43.82
2023-03-08T10:50:16.478Z,44.08
2023-03-08T10:53:23.180Z,43.68
2023-03-08T10:56:30.195Z,43.74
2023-03-08T10:59:35.665Z,43.77
2023-03-08T11:02:39.192Z,43.82
2023-03-08T11:05:52.608Z,43.78
2023-03-08T11:08:59.307Z,43.81
2023-03-08T11:12:02.197Z,43.91
2023-03-08T11:15:14.670Z,43.88
2023-03-08T11:18:30.467Z,43.98
2023-03-08T11:21:42.495Z,44.05
2023-03-08T11:24:57.195Z,44.18
2023-03-08T11:28:30.476Z,44.35
2023-03-08T11:31:41.418Z,44.35
2023-03-08T11:34:58.356Z,44.39
2023-03-08T11:38:07.892Z,44.40
2023-03-08T11:41:25.438Z,44.49
2023-03-08T11:44:43.225Z,44.58
2023-03-08T11:48:08.164Z,44.48
2023-03-08T11:51:19.853Z,44.65
2023-03-08T11:54:40.335Z,44.49
2023-03-08T11:57:51.592Z,44.33
2023-03-08T12:01:00.928Z,44.23
2023-03-08T12:04:10.683Z,44.38
2023-03-08T12:07:22.914Z,44.26
2023-03-08T12:10:29.900Z,44.34
2023-03-08T12:13:37.598Z,44.42
2023-03-08T12:16:47.840Z,44.42
2023-03-08T12:19:52.695Z,44.44
2023-03-08T12:23:01.833Z,44.46
2023-03-08T12:26:11.400Z,44.54
2023-03-08T12:29:23.589Z,44.55
2023-03-08T12:32:28.421Z,44.63
2023-03-08T12:35:33.582Z,44.46
2023-03-08T12:38:38.885Z,44.62
2023-03-08T12:41:41.931Z,44.67
2023-03-08T12:44:46.256Z,44.56
2023-03-08T12:47:57.383Z,44.64
2023-03-08T12:51:09.662Z,44.66
2023-03-08T12:54:23.239Z,44.59
2023-03-08T12:57:30.413Z,44.72
2023-03-08T13:00:37.706Z,44.63
2023-03-08T13:03:42.319Z,44.66
2023-03-08T13:07:21.496Z,44.57
2023-03-08T13:10:30.781Z,44.57
2023-03-08T13:13:51.707Z,44.65
2023-03-08T13:16:56.257Z,44.67
2023-03-08T13:20:02.249Z,44.52
2023-03-08T13:23:12.391Z,44.67
2023-03-08T13:26:50.258Z,44.59
2023-03-08T13:29:55.014Z,44.61
2023-03-08T13:33:00.337Z,44.54
2023-03-08T13:36:04.941Z,44.71
2023-03-08T13:39:17.989Z,44.64
2023-03-08T13:42:25.136Z,44.68
2023-03-08T13:45:29.511Z,44.72
2023-03-08T13:48:39.988Z,44.64
2023-03-08T13:51:45.922Z,44.66
2023-03-08T13:54:54.805Z,44.60
2023-03-08T13:58:00.205Z,44.58
2023-03-08T14:01:13.579Z,44.63
2023-03-08T14:04:22.480Z,44.68
2023-03-08T14:07:32.106Z,44.54
2023-03-08T14:10:39.296Z,44.62
2023-03-08T14:13:48.453Z,44.67
2023-03-08T14:16:55.557Z,44.71
2023-03-08T14:20:05.494Z,44.63
2023-03-08T14:23:25.414Z,44.71
2023-03-08T14:26:35.200Z,44.59
2023-03-08T14:29:39.218Z,44.68
2023-03-08T14:32:56.094Z,44.65
2023-03-08T14:36:01.857Z,44.59
2023-03-08T14:39:05.951Z,44.58
2023-03-08T14:42:22.265Z,44.62
2023-03-08T14:45:30.214Z,44.68
2023-03-08T14:48:36.233Z,44.75
2023-03-08T14:51:43.159Z,44.69
2023-03-08T14:54:46.284Z,44.74
2023-03-08T14:57:50.446Z,44.96
2023-03-08T15:00:56.122Z,44.84
2023-03-08T15:03:59.853Z,44.69
2023-03-08T15:07:04.932Z,44.83
2023-03-08T15:10:09.552Z,45.01
2023-03-08T15:13:15.010Z,44.96
2023-03-08T15:16:18.061Z,44.92
2023-03-08T15:19:21.043Z,45.00
2023-03-08T15:22:25.354Z,45.01
2023-03-08T15:25:31.082Z,45.10
2023-03-08T15:28:34.213Z,45.04
2023-03-08T15:31:37.171Z,45.40
2023-03-08T15:34:40.903Z,45.53
2023-03-08T15:37:45.759Z,45.36
2023-03-08T15:40:48.823Z,45.38
2023-03-08T15:43:54.427Z,45.48
2023-03-08T15:46:57.527Z,45.31
2023-03-08T15:50:01.636Z,45.52
2023-03-08T15:53:05.997Z,45.31
2023-03-08T15:56:09.007Z,45.33
2023-03-08T15:59:12.249Z,45.42
2023-03-08T16:02:16.704Z,45.29
2023-03-08T16:05:22.740Z,44.80
2023-03-08T16:08:28.983Z,43.18
2023-03-08T16:11:33.116Z,41.78
2023-03-08T16:14:36.599Z,42.06
2023-03-08T16:17:39.687Z,41.86
2023-03-08T16:20:43.249Z,41.68
2023-03-08T16:23:47.726Z,41.57
2023-03-08T16:26:50.665Z,41.74
2023-03-08T16:29:54.359Z,41.59
2023-03-08T16:32:57.403Z,41.76
2023-03-08T16:36:00.496Z,41.73
2023-03-08T16:39:05.614Z,41.70
2023-03-08T16:42:12.785Z,41.80
2023-03-08T16:45:16.920Z,41.98
2023-03-08T16:48:20.088Z,42.17
2023-03-08T16:51:26.205Z,42.30
2023-03-08T16:54:31.009Z,42.26
2023-03-08T16:57:34.035Z,42.49
2023-03-08T17:00:37.049Z,42.52
2023-03-08T17:03:39.996Z,42.43
2023-03-08T17:06:45.038Z,42.52
2023-03-08T17:09:50.646Z,42.53
2023-03-08T17:12:53.573Z,42.52
2023-03-08T17:15:56.689Z,41.19
2023-03-08T17:19:00.914Z,41.18
2023-03-08T17:22:04.079Z,41.40
2023-03-08T17:25:10.136Z,41.66
2023-03-08T17:28:15.830Z,41.61
2023-03-08T17:31:21.437Z,41.68
2023-03-08T17:34:24.411Z,41.96
2023-03-08T17:37:27.450Z,41.94
2023-03-08T17:40:31.807Z,41.93
2023-03-08T17:43:35.182Z,42.03
2023-03-08T17:46:38.835Z,42.30
2023-03-08T17:49:42.100Z,42.36
2023-03-08T17:52:44.973Z,42.38
2023-03-08T17:55:49.352Z,42.50
2023-03-08T17:58:52.687Z,42.55
2023-03-08T18:01:55.684Z,42.74
2023-03-08T18:04:58.700Z,42.92
2023-03-08T18:08:01.648Z,42.96
2023-03-08T18:11:06.381Z,43.05
2023-03-08T18:14:11.368Z,43.12
2023-03-08T18:17:14.356Z,43.18
2023-03-08T18:20:19.017Z,43.17
2023-03-08T18:23:22.239Z,43.13
2023-03-08T18:26:26.663Z,43.09
2023-03-08T18:29:29.617Z,43.10
2023-03-08T18:32:32.772Z,43.22
2023-03-08T18:35:35.805Z,43.04
2023-03-08T18:38:39.051Z,43.19
2023-03-08T18:41:43.460Z,43.27
2023-03-08T18:44:46.427Z,43.28
2023-03-08T18:47:50.726Z,43.22
2023-03-08T18:50:54.509Z,43.23
2023-03-08T18:53:58.833Z,43.06
2023-03-08T18:57:03.536Z,43.30
2023-03-08T19:00:10.582Z,43.26
2023-03-08T19:03:13.559Z,43.22
2023-03-08T19:06:16.859Z,43.26
2023-03-08T19:09:21.759Z,43.28
2023-03-08T19:12:27.236Z,43.22
2023-03-08T19:15:30.614Z,43.30
2023-03-08T19:18:33.477Z,43.33
2023-03-08T19:21:38.980Z,43.35
2023-03-08T19:24:42.021Z,43.27
2023-03-08T19:27:46.391Z,43.08
2023-03-08T19:30:49.453Z,43.19
2023-03-08T19:33:52.512Z,43.27
2023-03-08T19:36:55.904Z,43.21
2023-03-08T19:40:00.949Z,43.32
2023-03-08T19:43:06.183Z,43.52
2023-03-08T19:46:10.057Z,43.48
2023-03-08T19:49:14.891Z,43.40
2023-03-08T19:52:17.943Z,43.37
2023-03-08T19:55:20.905Z,43.39
2023-03-08T19:58:25.296Z,43.39
2023-03-08T20:01:29.587Z,43.37
2023-03-08T20:04:32.793Z,43.53
2023-03-08T20:07:35.834Z,43.57
2023-03-08T20:10:39.207Z,43.45
2023-03-08T20:13:43.609Z,43.53
2023-03-08T20:16:49.952Z,43.51
2023-03-08T20:19:53.208Z,43.48
2023-03-08T20:22:56.441Z,43.58
2023-03-08T20:25:59.714Z,43.51
2023-03-08T20:29:05.206Z,43.48
2023-03-08T20:32:08.318Z,43.62
2023-03-08T20:35:13.751Z,43.55
2023-03-08T20:38:16.792Z,43.59
2023-03-08T20:41:21.889Z,43.60
2023-03-08T20:44:26.375Z,43.70
2023-03-08T20:47:29.394Z,43.68
2023-03-08T20:50:32.880Z,43.59
2023-03-08T20:53:36.612Z,43.64
2023-03-08T20:56:39.808Z,43.72
2023-03-08T20:59:44.212Z,43.60
2023-03-08T21:02:47.331Z,43.68
2023-03-08T21:05:50.344Z,43.67
2023-03-08T21:08:53.679Z,43.65
2023-03-08T21:11:56.740Z,43.74
2023-03-08T21:15:02.440Z,43.72
2023-03-08T21:18:06.659Z,43.72
2023-03-08T21:21:09.615Z,43.81
2023-03-08T21:24:14.220Z,43.69
2023-03-08T21:27:17.381Z,43.79
2023-03-08T21:30:22.011Z,43.80
2023-03-08T21:33:25.018Z,43.80
2023-03-08T21:36:28.056Z,43.88
2023-03-08T21:39:32.127Z,43.63
2023-03-08T21:42:35.100Z,43.15
2023-03-08T21:45:41.874Z,43.20
2023-03-08T21:48:45.034Z,42.98
2023-03-08T21:51:48.573Z,43.02
2023-03-08T21:54:51.745Z,43.01
2023-03-08T21:57:54.762Z,43.03
2023-03-08T22:00:59.091Z,43.13
2023-03-08T22:04:03.811Z,43.15
2023-03-08T22:07:06.784Z,43.22
2023-03-08T22:10:12.336Z,43.34
2023-03-08T22:13:15.616Z,43.22
2023-03-08T22:16:21.024Z,43.34
2023-03-08T22:19:24.044Z,43.31
2023-03-08T22:22:27.055Z,43.23
2023-03-08T22:25:29.989Z,43.32
2023-03-08T22:28:32.949Z,43.34
2023-03-08T22:31:37.263Z,43.35
2023-03-08T22:34:40.212Z,43.22
2023-03-08T22:37:43.891Z,43.30
2023-03-08T22:40:46.869Z,43.39
2023-03-08T22:43:50.668Z,43.37
2023-03-08T22:46:55.004Z,43.38
2023-03-08T22:49:58.112Z,43.46
2023-03-08T22:53:01.530Z,43.37
2023-03-08T22:56:04.454Z,43.38
2023-03-08T22:59:07.422Z,43.27
2023-03-08T23:02:12.171Z,43.42
2023-03-08T23:05:16.966Z,43.31
2023-03-08T23:08:19.899Z,43.44
2023-03-08T23:11:22.843Z,43.41
2023-03-08T23:14:25.756Z,43.35
2023-03-08T23:17:30.202Z,43.33
2023-03-08T23:20:33.387Z,43.48
2023-03-08T23:23:37.079Z,43.58
2023-03-08T23:26:40.479Z,43.50
2023-03-08T23:29:43.580Z,43.66
2023-03-08T23:32:47.958Z,43.93
2023-03-08T23:35:51.053Z,43.98
2023-03-08T23:38:54.270Z,43.90
2023-03-08T23:41:57.423Z,43.86
2023-03-08T23:45:00.474Z,43.69
2023-03-08T23:48:05.084Z,43.82
2023-03-08T23:51:10.461Z,43.78
2023-03-08T23:54:13.956Z,43.80
2023-03-08T23:57:17.072Z,43.82
